This is the latest recevied weather packets stored in our database for station/object AG1T-1. If no packets are shown the sender has not sent any weather packets the latest 10 day(s).
| Time | Temp. | Humidity | Pressure | Rain* | Wind** | Luminosity | Snow |
|---|---|---|---|---|---|---|---|
| 1777437003 | 5.56° C | 66% | 1024.1 hPa | 0.25 mm | - | 0 W/m² | - |
| 1777436403 | 5.56° C | 66% | 1024 hPa | 0.25 mm | - | 0 W/m² | - |
| 1777435803 | 5.56° C | 66% | 1024 hPa | 0 mm | - | 0 W/m² | - |
| 1777435203 | 6.11° C | 65% | 1023.9 hPa | 0 mm | - | 0 W/m² | - |
| 1777434603 | 6.67° C | 64% | 1023.8 hPa | 0 mm | - | 0 W/m² | - |
| 1777434003 | 6.67° C | 62% | 1023.7 hPa | 0 mm | - | 0 W/m² | - |
| 1777433403 | 7.22° C | 61% | 1023.5 hPa | 0 mm | - | 0 W/m² | - |
| 1777432803 | 7.22° C | 61% | 1023.4 hPa | 0 mm | - | 0 W/m² | - |
| 1777432203 | 7.78° C | 59% | 1023.3 hPa | 0 mm | - | 0 W/m² | - |
| 1777431603 | 7.78° C | 58% | 1023.3 hPa | 0 mm | - | 0 W/m² | - |
| 1777431003 | 8.33° C | 56% | 1023.2 hPa | 0 mm | - | 0 W/m² | - |
| 1777430403 | 8.89° C | 52% | 1023 hPa | 0.25 mm | - | 0 W/m² | - |
| 1777429803 | 9.44° C | 50% | 1022.8 hPa | 0.25 mm | - | 0 W/m² | - |
| 1777429203 | 10° C | 45% | 1022.8 hPa | 0.25 mm | - | 7 W/m² | - |
| 1777428603 | 11.11° C | 43% | 1022.8 hPa | 0.25 mm | - | 12 W/m² | - |
| 1777428003 | 11.67° C | 40% | 1022.8 hPa | 0.25 mm | - | 19 W/m² | - |
| 1777427403 | 12.22° C | 39% | 1022.7 hPa | 0.25 mm | - | 26 W/m² | - |
| 1777426803 | 12.78° C | 37% | 1022.8 hPa | 0 mm | - | 30 W/m² | - |
| 1777426203 | 12.78° C | 36% | 1022.9 hPa | 0 mm | - | 93 W/m² | - |
| 1777425603 | 13.33° C | 36% | 1022.9 hPa | 0 mm | - | 130 W/m² | - |
| 1777425003 | 12.78° C | 37% | 1022.8 hPa | 0 mm | - | 167 W/m² | - |
| 1777424403 | 12.22° C | 39% | 1022.8 hPa | 0.25 mm | - | 206 W/m² | - |
| 1777423803 | 12.22° C | 40% | 1022.9 hPa | 0.25 mm | - | 246 W/m² | - |
| 1777423203 | 12.22° C | 39% | 1023 hPa | 0.25 mm | - | 279 W/m² | - |
| 1777422603 | 12.78° C | 39% | 1022.9 hPa | 0.25 mm | - | 308 W/m² | - |
* Rain latest hour (hover to see other rain measurements)
** Current wind speed in m/s (hover to see current wind gust speed)